createdAt,value
2023-05-05T00:00:40.068Z,11.80
2023-05-05T00:03:07.244Z,11.70
2023-05-05T00:05:34.120Z,11.70
2023-05-05T00:08:00.906Z,11.70
2023-05-05T00:10:27.988Z,11.70
2023-05-05T00:12:54.842Z,11.60
2023-05-05T00:15:21.815Z,11.60
2023-05-05T00:17:48.612Z,11.60
2023-05-05T00:20:15.401Z,11.50
2023-05-05T00:22:42.147Z,11.50
2023-05-05T00:25:09.209Z,11.50
2023-05-05T00:27:36.033Z,11.50
2023-05-05T00:30:03.470Z,11.50
2023-05-05T00:32:30.317Z,11.50
2023-05-05T00:34:57.103Z,11.40
2023-05-05T00:37:23.887Z,11.30
2023-05-05T00:39:50.847Z,11.40
2023-05-05T00:42:17.631Z,11.40
2023-05-05T00:44:44.970Z,11.40
2023-05-05T00:47:12.012Z,11.30
2023-05-05T00:49:38.935Z,11.30
2023-05-05T00:52:07.417Z,11.20
2023-05-05T00:54:37.343Z,11.20
2023-05-05T00:57:04.283Z,11.30
2023-05-05T00:59:31.274Z,11.20
2023-05-05T01:01:58.237Z,11.20
2023-05-05T01:04:26.732Z,11.20
2023-05-05T01:07:11.759Z,11.20
2023-05-05T01:09:47.539Z,11.20
2023-05-05T01:12:23.418Z,11.20
2023-05-05T01:14:57.930Z,11.20
2023-05-05T01:17:27.564Z,11.10
2023-05-05T01:19:59.635Z,11.10
2023-05-05T01:22:28.974Z,11.10
2023-05-05T01:25:27.140Z,11.10
2023-05-05T01:28:39.521Z,11.10
2023-05-05T01:31:09.682Z,11.00
2023-05-05T01:34:00.144Z,11.10
2023-05-05T01:36:31.526Z,11.10
2023-05-05T01:39:00.627Z,11.10
2023-05-05T01:41:33.648Z,11.00
2023-05-05T01:44:01.328Z,11.00
2023-05-05T01:46:28.061Z,11.00
2023-05-05T01:48:54.857Z,11.00
2023-05-05T01:51:22.065Z,11.00
2023-05-05T01:53:50.954Z,11.00
2023-05-05T01:56:17.744Z,11.00
2023-05-05T01:58:45.184Z,11.00
2023-05-05T02:01:12.497Z,11.00
2023-05-05T02:03:39.632Z,11.00
2023-05-05T02:06:06.567Z,11.00
2023-05-05T02:08:33.390Z,10.90
2023-05-05T02:11:00.783Z,11.00
2023-05-05T02:13:27.604Z,11.00
2023-05-05T02:15:54.452Z,11.00
2023-05-05T02:18:22.198Z,11.00
2023-05-05T02:20:49.230Z,11.00
2023-05-05T02:23:15.963Z,11.00
2023-05-05T02:25:44.130Z,10.90
2023-05-05T02:28:28.168Z,10.90
2023-05-05T02:30:59.583Z,10.90
2023-05-05T02:33:26.918Z,10.90
2023-05-05T02:35:54.257Z,10.90
2023-05-05T02:38:21.483Z,10.80
2023-05-05T02:40:48.317Z,10.80
2023-05-05T02:43:16.833Z,10.70
2023-05-05T02:45:43.926Z,10.70
2023-05-05T02:48:12.956Z,10.70
2023-05-05T02:50:39.930Z,10.70
2023-05-05T02:53:06.895Z,10.60
2023-05-05T02:55:51.010Z,10.60
2023-05-05T02:58:23.641Z,10.60
2023-05-05T03:01:00.866Z,10.60
2023-05-05T03:03:54.956Z,10.60
2023-05-05T03:06:22.198Z,10.50
2023-05-05T03:09:08.652Z,10.50
2023-05-05T03:12:00.051Z,10.50
2023-05-05T03:14:27.560Z,10.50
2023-05-05T03:16:54.704Z,10.50
2023-05-05T03:19:21.567Z,10.40
2023-05-05T03:21:48.341Z,10.40
2023-05-05T03:24:17.917Z,10.40
2023-05-05T03:26:45.465Z,10.40
2023-05-05T03:29:12.980Z,10.40
2023-05-05T03:31:39.974Z,10.50
2023-05-05T03:34:07.387Z,10.40
2023-05-05T03:36:35.163Z,10.40
2023-05-05T03:39:01.982Z,10.40
2023-05-05T03:41:28.847Z,10.40
2023-05-05T03:43:55.671Z,10.40
2023-05-05T03:46:22.491Z,10.40
2023-05-05T03:48:49.286Z,10.50
2023-05-05T03:51:16.396Z,10.50
2023-05-05T03:53:43.176Z,10.50
2023-05-05T03:56:10.031Z,10.60
2023-05-05T03:58:36.775Z,10.90
2023-05-05T04:01:03.968Z,11.50
2023-05-05T04:03:31.203Z,12.20
2023-05-05T04:05:58.191Z,12.70
2023-05-05T04:08:25.118Z,13.00
2023-05-05T04:10:51.928Z,13.40
2023-05-05T04:13:18.757Z,13.80
2023-05-05T04:15:46.508Z,14.30
2023-05-05T04:18:13.314Z,14.80
2023-05-05T04:20:40.146Z,15.20
2023-05-05T04:23:07.171Z,15.60
2023-05-05T04:25:34.356Z,16.00
2023-05-05T04:28:01.165Z,16.30
2023-05-05T04:30:27.982Z,16.60
2023-05-05T04:32:54.875Z,16.80
2023-05-05T04:35:22.228Z,17.00
2023-05-05T04:37:49.059Z,17.40
2023-05-05T04:40:16.197Z,18.20
2023-05-05T04:42:43.004Z,18.80
2023-05-05T04:45:10.274Z,19.40
2023-05-05T04:47:38.839Z,19.80
2023-05-05T04:50:06.482Z,20.30
2023-05-05T04:52:33.597Z,20.70
2023-05-05T04:55:01.240Z,21.20
2023-05-05T04:57:28.061Z,21.70
2023-05-05T04:59:54.791Z,22.30
2023-05-05T05:02:21.664Z,22.40
2023-05-05T05:04:48.552Z,22.40
2023-05-05T05:07:15.311Z,22.70
2023-05-05T05:09:42.210Z,22.60
2023-05-05T05:12:09.801Z,22.50
2023-05-05T05:14:38.038Z,22.90
2023-05-05T05:17:05.533Z,23.10
2023-05-05T05:19:32.382Z,23.20
2023-05-05T05:21:59.194Z,23.40
2023-05-05T05:24:26.324Z,23.50
2023-05-05T05:26:53.100Z,23.60
2023-05-05T05:29:20.520Z,23.80
2023-05-05T05:31:47.426Z,24.10
2023-05-05T05:34:14.169Z,24.40
2023-05-05T05:36:41.015Z,24.30
2023-05-05T05:39:08.149Z,24.40
2023-05-05T05:41:34.933Z,24.70
2023-05-05T05:44:01.768Z,25.00
2023-05-05T05:46:28.584Z,25.10
2023-05-05T05:48:55.493Z,25.20
2023-05-05T05:51:22.368Z,25.20
2023-05-05T05:53:49.326Z,25.40
2023-05-05T05:56:16.074Z,25.80
2023-05-05T05:58:42.935Z,26.20
2023-05-05T06:01:09.818Z,26.50
2023-05-05T06:03:36.679Z,26.50
2023-05-05T06:06:03.677Z,26.70
2023-05-05T06:08:30.629Z,26.60
2023-05-05T06:10:57.401Z,27.00
2023-05-05T06:13:24.155Z,27.30
2023-05-05T06:15:50.991Z,27.60
2023-05-05T06:18:17.974Z,28.30
2023-05-05T06:20:44.898Z,29.10
2023-05-05T06:23:11.726Z,29.10
2023-05-05T06:25:38.454Z,29.30
2023-05-05T06:28:05.612Z,29.60
2023-05-05T06:30:32.876Z,30.10
2023-05-05T06:32:59.948Z,30.50
2023-05-05T06:35:26.869Z,30.60
2023-05-05T06:37:54.082Z,30.70
2023-05-05T06:40:21.108Z,30.30
2023-05-05T06:42:47.931Z,30.00
2023-05-05T06:45:15.392Z,30.30
2023-05-05T06:47:42.614Z,30.90
2023-05-05T06:50:10.268Z,30.90
2023-05-05T06:52:37.315Z,31.10
2023-05-05T06:55:04.619Z,31.10
2023-05-05T06:57:31.376Z,30.90
2023-05-05T06:59:58.141Z,30.50
2023-05-05T07:02:26.639Z,30.40
2023-05-05T07:04:55.606Z,29.80
2023-05-05T07:07:22.705Z,29.40
2023-05-05T07:09:49.537Z,29.30
2023-05-05T07:12:16.391Z,29.60
2023-05-05T07:14:43.354Z,29.90
2023-05-05T07:17:11.415Z,30.20
2023-05-05T07:19:38.345Z,30.60
2023-05-05T07:22:05.289Z,30.90
2023-05-05T07:24:32.065Z,31.30
2023-05-05T07:26:59.278Z,31.40
2023-05-05T07:29:26.105Z,31.90
2023-05-05T07:31:52.989Z,32.30
2023-05-05T07:34:19.836Z,32.50
2023-05-05T07:36:46.686Z,32.80
2023-05-05T07:39:19.859Z,32.80
2023-05-05T07:41:46.590Z,33.00
2023-05-05T07:44:13.472Z,33.80
2023-05-05T07:46:40.417Z,34.50
2023-05-05T07:49:07.681Z,35.20
2023-05-05T07:51:35.060Z,35.20
2023-05-05T07:54:01.934Z,35.00
2023-05-05T07:56:28.816Z,35.20
2023-05-05T07:58:55.729Z,35.50
2023-05-05T08:01:22.763Z,35.40
2023-05-05T08:03:49.630Z,35.00
2023-05-05T08:06:17.948Z,34.70
2023-05-05T08:08:44.754Z,34.80
2023-05-05T08:11:11.548Z,35.40
2023-05-05T08:13:39.142Z,35.50
2023-05-05T08:16:06.352Z,35.30
2023-05-05T08:18:34.505Z,34.90
2023-05-05T08:21:01.268Z,34.70
2023-05-05T08:23:27.973Z,34.70
2023-05-05T08:25:54.754Z,34.60
2023-05-05T08:28:21.532Z,34.40
2023-05-05T08:30:49.499Z,34.80
2023-05-05T08:33:16.371Z,35.10
2023-05-05T08:35:43.364Z,35.40
2023-05-05T08:38:11.286Z,35.90
2023-05-05T08:40:39.432Z,36.30
2023-05-05T08:43:06.333Z,36.50
2023-05-05T08:45:33.259Z,36.80
2023-05-05T08:48:04.390Z,37.00
2023-05-05T08:50:31.429Z,37.40
2023-05-05T08:53:16.923Z,37.90
2023-05-05T08:55:54.315Z,38.40
2023-05-05T08:58:24.616Z,38.10
2023-05-05T09:00:52.454Z,37.90
2023-05-05T09:03:19.288Z,37.20
2023-05-05T09:05:46.226Z,36.80
2023-05-05T09:08:13.054Z,36.40
2023-05-05T09:10:42.760Z,35.70
2023-05-05T09:13:09.660Z,35.60
2023-05-05T09:15:38.848Z,35.50
2023-05-05T09:18:08.914Z,34.80
2023-05-05T09:20:36.662Z,35.10
2023-05-05T09:23:12.978Z,36.20
2023-05-05T09:25:40.749Z,37.30
2023-05-05T09:28:14.860Z,38.20
2023-05-05T09:30:42.796Z,38.90
2023-05-05T09:33:09.720Z,39.30
2023-05-05T09:35:53.284Z,39.40
2023-05-05T09:38:20.633Z,38.80
2023-05-05T09:40:48.268Z,38.80
2023-05-05T09:43:15.935Z,38.80
2023-05-05T09:45:43.226Z,38.80
2023-05-05T09:48:29.617Z,38.50
2023-05-05T09:50:56.830Z,37.60
2023-05-05T09:53:24.097Z,36.60
2023-05-05T09:55:58.082Z,35.70
2023-05-05T09:58:28.815Z,34.40
2023-05-05T10:00:56.687Z,33.60
2023-05-05T10:03:23.762Z,32.10
2023-05-05T10:05:54.193Z,31.00
2023-05-05T10:08:22.549Z,30.60
2023-05-05T10:11:07.358Z,30.20
2023-05-05T10:13:40.244Z,29.70
2023-05-05T10:16:08.254Z,29.30
2023-05-05T10:18:35.066Z,29.00
2023-05-05T10:21:03.285Z,28.60
2023-05-05T10:23:50.377Z,28.40
2023-05-05T10:26:17.526Z,28.10
2023-05-05T10:28:51.030Z,27.80
2023-05-05T10:31:25.854Z,27.70
2023-05-05T10:34:22.005Z,27.30
2023-05-05T10:36:49.400Z,26.90
2023-05-05T10:39:16.343Z,26.80
2023-05-05T10:41:43.188Z,26.80
2023-05-05T10:44:10.782Z,26.80
2023-05-05T10:46:38.082Z,26.90
2023-05-05T10:49:07.552Z,26.70
2023-05-05T10:51:55.841Z,26.10
2023-05-05T10:54:34.622Z,25.50
2023-05-05T10:57:04.607Z,25.50
2023-05-05T10:59:37.910Z,25.60
2023-05-05T11:02:24.376Z,25.70
2023-05-05T11:05:08.272Z,25.60
2023-05-05T11:07:35.548Z,25.50
2023-05-05T11:10:03.907Z,25.50
2023-05-05T11:12:31.699Z,25.40
2023-05-05T11:15:27.666Z,25.50
2023-05-05T11:18:07.403Z,25.50
2023-05-05T11:20:40.649Z,25.20
2023-05-05T11:23:07.561Z,25.20
2023-05-05T11:25:37.533Z,25.20
2023-05-05T11:28:09.074Z,25.30
2023-05-05T11:30:57.548Z,25.60
2023-05-05T11:33:37.729Z,25.80
2023-05-05T11:36:11.870Z,25.90
2023-05-05T11:38:47.593Z,26.00
2023-05-05T11:41:34.733Z,26.10
2023-05-05T11:44:10.985Z,26.20
2023-05-05T11:46:41.727Z,26.20
2023-05-05T11:49:09.408Z,26.20
2023-05-05T11:51:36.318Z,26.30
2023-05-05T11:54:03.183Z,26.20
2023-05-05T11:56:30.038Z,26.30
2023-05-05T11:59:08.646Z,26.50
2023-05-05T12:01:39.290Z,26.60
2023-05-05T12:04:06.609Z,26.60
2023-05-05T12:06:34.088Z,26.60
2023-05-05T12:09:01.177Z,26.60
2023-05-05T12:11:28.024Z,26.50
2023-05-05T12:14:12.914Z,26.50
2023-05-05T12:16:39.856Z,26.60
2023-05-05T12:19:07.964Z,26.60
2023-05-05T12:21:35.193Z,26.60
2023-05-05T12:24:02.082Z,26.60
2023-05-05T12:26:29.763Z,26.60
2023-05-05T12:28:59.713Z,26.40
2023-05-05T12:31:36.150Z,26.50
2023-05-05T12:34:03.806Z,26.50
2023-05-05T12:36:30.861Z,26.40
2023-05-05T12:38:57.653Z,26.20
2023-05-05T12:41:24.514Z,25.80
2023-05-05T12:43:58.375Z,25.80
2023-05-05T12:46:25.669Z,25.80
2023-05-05T12:49:04.789Z,25.90
2023-05-05T12:51:54.904Z,26.10
2023-05-05T12:54:23.824Z,25.80
2023-05-05T12:56:50.627Z,25.70
2023-05-05T12:59:23.415Z,25.60
2023-05-05T13:01:54.910Z,25.50
2023-05-05T13:04:25.936Z,25.30
2023-05-05T13:07:12.517Z,25.40
2023-05-05T13:09:39.570Z,25.60
2023-05-05T13:12:08.513Z,25.70
2023-05-05T13:14:36.408Z,25.90
2023-05-05T13:17:03.236Z,25.90
2023-05-05T13:19:30.147Z,25.70
2023-05-05T13:21:57.602Z,25.50
2023-05-05T13:24:38.021Z,25.50
2023-05-05T13:27:09.576Z,25.50
2023-05-05T13:29:36.421Z,25.50
2023-05-05T13:32:03.265Z,25.60
2023-05-05T13:34:30.156Z,25.60
2023-05-05T13:36:56.997Z,25.60
2023-05-05T13:39:23.809Z,25.20
2023-05-05T13:41:50.662Z,24.90
2023-05-05T13:44:17.551Z,24.80
2023-05-05T13:46:44.451Z,24.80
2023-05-05T13:49:11.337Z,25.00
2023-05-05T13:51:38.951Z,25.20
2023-05-05T13:54:06.733Z,25.30
2023-05-05T13:56:34.301Z,25.40
2023-05-05T13:59:01.306Z,25.40
2023-05-05T14:01:28.253Z,25.30
2023-05-05T14:03:56.985Z,25.40
2023-05-05T14:06:24.407Z,25.40
2023-05-05T14:08:51.715Z,25.30
2023-05-05T14:11:20.658Z,25.30
2023-05-05T14:13:48.240Z,25.20
2023-05-05T14:16:15.330Z,25.00
2023-05-05T14:18:42.534Z,24.80
2023-05-05T14:21:09.459Z,24.70
2023-05-05T14:23:36.344Z,24.70
2023-05-05T14:26:03.208Z,24.80
2023-05-05T14:28:30.075Z,25.00
2023-05-05T14:30:57.026Z,25.10
2023-05-05T14:33:23.891Z,25.20
2023-05-05T14:35:50.701Z,25.10
2023-05-05T14:38:17.719Z,25.00
2023-05-05T14:40:44.557Z,25.00
2023-05-05T14:43:11.366Z,25.00
2023-05-05T14:45:38.213Z,24.90
2023-05-05T14:48:05.192Z,24.90
2023-05-05T14:50:31.987Z,24.90
2023-05-05T14:52:58.811Z,24.80
2023-05-05T14:55:26.140Z,25.00
2023-05-05T14:57:52.971Z,25.10
2023-05-05T15:00:19.909Z,25.20
2023-05-05T15:02:48.327Z,25.20
2023-05-05T15:05:15.585Z,25.10
2023-05-05T15:07:42.380Z,25.00
2023-05-05T15:10:09.692Z,25.00
2023-05-05T15:12:36.630Z,25.00
2023-05-05T15:15:03.571Z,25.00
2023-05-05T15:17:31.823Z,25.10
2023-05-05T15:19:58.879Z,25.00
2023-05-05T15:22:26.006Z,24.90
2023-05-05T15:24:53.195Z,24.80
2023-05-05T15:27:20.169Z,24.70
2023-05-05T15:29:47.065Z,24.70
2023-05-05T15:32:14.035Z,24.70
2023-05-05T15:34:40.976Z,24.70
2023-05-05T15:37:07.827Z,24.70
2023-05-05T15:39:34.703Z,24.60
2023-05-05T15:42:04.927Z,24.40
2023-05-05T15:44:31.947Z,24.30
2023-05-05T15:46:58.806Z,24.10
2023-05-05T15:49:25.748Z,24.10
2023-05-05T15:51:52.664Z,24.10
2023-05-05T15:54:19.588Z,24.10
2023-05-05T15:56:46.404Z,24.10
2023-05-05T15:59:13.464Z,24.10
2023-05-05T16:01:40.468Z,24.10
2023-05-05T16:04:07.466Z,24.10
2023-05-05T16:06:34.277Z,24.10
2023-05-05T16:09:01.122Z,24.00
2023-05-05T16:11:28.187Z,24.00
2023-05-05T16:13:55.231Z,23.90
2023-05-05T16:16:22.158Z,23.80
2023-05-05T16:18:49.127Z,23.80
2023-05-05T16:21:16.138Z,23.70
2023-05-05T16:23:43.412Z,23.60
2023-05-05T16:26:10.715Z,23.70
2023-05-05T16:28:37.756Z,23.70
2023-05-05T16:31:04.715Z,23.60
2023-05-05T16:33:31.669Z,23.60
2023-05-05T16:35:58.587Z,23.60
2023-05-05T16:38:25.482Z,23.60
2023-05-05T16:40:52.404Z,23.60
2023-05-05T16:43:19.622Z,23.60
2023-05-05T16:45:46.774Z,23.60
2023-05-05T16:48:14.748Z,23.60
2023-05-05T16:50:41.706Z,23.50
2023-05-05T16:53:09.201Z,23.50
2023-05-05T16:55:36.085Z,23.40
2023-05-05T16:58:03.229Z,23.40
2023-05-05T17:00:30.287Z,23.30
2023-05-05T17:02:57.161Z,23.20
2023-05-05T17:05:24.020Z,23.20
2023-05-05T17:07:51.033Z,23.10
2023-05-05T17:10:17.874Z,23.10
2023-05-05T17:12:44.704Z,23.00
2023-05-05T17:15:11.685Z,22.90
2023-05-05T17:17:39.310Z,22.90
2023-05-05T17:20:08.384Z,22.80
2023-05-05T17:22:35.202Z,22.70
2023-05-05T17:25:02.070Z,22.60
2023-05-05T17:27:28.821Z,22.50
2023-05-05T17:29:56.321Z,22.50
2023-05-05T17:32:23.402Z,22.40
2023-05-05T17:34:50.210Z,22.40
2023-05-05T17:37:16.996Z,22.30
2023-05-05T17:39:43.831Z,22.20
2023-05-05T17:42:10.861Z,22.20
2023-05-05T17:44:37.658Z,22.10
2023-05-05T17:47:07.688Z,22.00
2023-05-05T17:49:34.864Z,21.90
2023-05-05T17:52:01.676Z,21.80
2023-05-05T17:54:28.520Z,21.80
2023-05-05T17:56:55.368Z,21.70
2023-05-05T17:59:22.226Z,21.60
2023-05-05T18:01:49.204Z,21.60
2023-05-05T18:04:16.223Z,21.50
2023-05-05T18:06:43.102Z,21.40
2023-05-05T18:09:11.262Z,21.40
2023-05-05T18:11:38.268Z,21.30
2023-05-05T18:14:05.140Z,21.10
2023-05-05T18:16:32.013Z,21.00
2023-05-05T18:18:58.801Z,20.90
2023-05-05T18:21:25.881Z,20.80
2023-05-05T18:23:57.323Z,20.70
2023-05-05T18:26:28.695Z,20.60
2023-05-05T18:28:55.470Z,20.50
2023-05-05T18:31:22.356Z,20.40
2023-05-05T18:33:49.182Z,20.30
2023-05-05T18:36:16.211Z,20.20
2023-05-05T18:38:43.152Z,20.10
2023-05-05T18:41:09.949Z,20.00
2023-05-05T18:43:36.776Z,20.00
2023-05-05T18:46:03.643Z,19.90
2023-05-05T18:48:30.716Z,19.80
2023-05-05T18:51:04.012Z,19.70
2023-05-05T18:53:31.831Z,19.60
2023-05-05T18:55:59.248Z,19.50
2023-05-05T18:58:26.670Z,19.40
2023-05-05T19:00:53.737Z,19.30
2023-05-05T19:03:20.608Z,19.10
2023-05-05T19:05:47.406Z,19.00
2023-05-05T19:08:14.214Z,18.90
2023-05-05T19:10:41.565Z,18.80
2023-05-05T19:13:09.542Z,18.70
2023-05-05T19:15:36.420Z,18.60
2023-05-05T19:18:03.392Z,18.50
2023-05-05T19:20:31.748Z,18.50
2023-05-05T19:23:03.573Z,18.40
2023-05-05T19:25:30.992Z,18.40
2023-05-05T19:27:58.016Z,18.40
2023-05-05T19:30:24.875Z,18.40
2023-05-05T19:32:54.315Z,18.30
2023-05-05T19:35:21.271Z,18.30
2023-05-05T19:37:48.176Z,18.20
2023-05-05T19:40:14.975Z,18.20
2023-05-05T19:42:41.957Z,18.10
2023-05-05T19:45:08.990Z,18.00
2023-05-05T19:47:36.336Z,17.90
2023-05-05T19:50:03.266Z,17.70
2023-05-05T19:52:30.297Z,17.70
2023-05-05T19:54:58.406Z,17.60
2023-05-05T19:57:25.244Z,17.60
2023-05-05T19:59:52.040Z,17.60
2023-05-05T20:02:20.309Z,17.50
2023-05-05T20:04:47.271Z,17.40
2023-05-05T20:07:15.606Z,17.40
2023-05-05T20:09:42.925Z,17.20
2023-05-05T20:12:09.770Z,17.10
2023-05-05T20:14:36.673Z,17.00
2023-05-05T20:17:03.564Z,16.90
2023-05-05T20:19:30.471Z,16.90
2023-05-05T20:21:57.265Z,16.80
2023-05-05T20:24:24.066Z,16.80
2023-05-05T20:26:50.913Z,16.80
2023-05-05T20:29:19.613Z,16.70
2023-05-05T20:31:47.833Z,16.60
2023-05-05T20:34:14.950Z,16.60
2023-05-05T20:36:41.797Z,16.50
2023-05-05T20:39:08.613Z,16.50
2023-05-05T20:41:36.668Z,16.40
2023-05-05T20:44:03.453Z,16.30
2023-05-05T20:46:30.314Z,16.30
2023-05-05T20:48:57.233Z,16.40
2023-05-05T20:51:24.032Z,16.30
2023-05-05T20:53:50.874Z,16.30
2023-05-05T20:56:17.874Z,16.20
2023-05-05T20:58:44.706Z,16.10
2023-05-05T21:01:12.074Z,16.00
2023-05-05T21:03:39.048Z,16.00
2023-05-05T21:06:06.118Z,16.00
2023-05-05T21:08:32.982Z,15.90
2023-05-05T21:10:59.778Z,16.00
2023-05-05T21:13:26.618Z,16.00
2023-05-05T21:15:53.461Z,16.00
2023-05-05T21:18:20.309Z,16.00
2023-05-05T21:20:47.166Z,15.90
2023-05-05T21:23:13.989Z,15.80
2023-05-05T21:25:40.818Z,15.80
2023-05-05T21:28:07.685Z,15.70
2023-05-05T21:30:34.479Z,15.70
2023-05-05T21:33:01.351Z,15.70
2023-05-05T21:35:28.224Z,15.70
2023-05-05T21:37:54.978Z,15.70
2023-05-05T21:40:21.832Z,15.60
2023-05-05T21:42:48.599Z,15.70
2023-05-05T21:45:15.371Z,15.60
2023-05-05T21:47:42.351Z,15.60
2023-05-05T21:50:10.235Z,15.60
2023-05-05T21:52:37.251Z,15.50
2023-05-05T21:55:04.515Z,15.40
2023-05-05T21:57:31.305Z,15.40
2023-05-05T21:59:58.123Z,15.30
2023-05-05T22:02:25.061Z,15.30
2023-05-05T22:04:52.091Z,15.30
2023-05-05T22:07:19.086Z,15.30
2023-05-05T22:09:46.241Z,15.30
2023-05-05T22:12:13.171Z,15.20
2023-05-05T22:14:40.108Z,15.30
2023-05-05T22:17:07.050Z,15.20
2023-05-05T22:19:33.870Z,15.20
2023-05-05T22:22:00.744Z,15.10
2023-05-05T22:24:27.553Z,15.00
2023-05-05T22:26:54.588Z,15.00
2023-05-05T22:29:21.369Z,15.00
2023-05-05T22:31:48.321Z,14.90
2023-05-05T22:34:15.196Z,14.90
2023-05-05T22:36:42.278Z,14.90
2023-05-05T22:39:09.172Z,14.90
2023-05-05T22:41:36.092Z,14.90
2023-05-05T22:44:02.920Z,14.80
2023-05-05T22:46:29.826Z,14.80
2023-05-05T22:48:56.656Z,14.70
2023-05-05T22:51:23.480Z,14.70
2023-05-05T22:53:50.400Z,14.70
2023-05-05T22:56:17.207Z,14.60
2023-05-05T22:58:44.025Z,14.50
2023-05-05T23:01:10.977Z,14.50
2023-05-05T23:03:37.761Z,14.40
2023-05-05T23:06:04.544Z,14.40
2023-05-05T23:08:31.358Z,14.40
2023-05-05T23:10:58.319Z,14.40
2023-05-05T23:13:25.175Z,14.40
2023-05-05T23:15:52.609Z,14.40
2023-05-05T23:18:19.410Z,14.40
2023-05-05T23:20:46.297Z,14.40
2023-05-05T23:23:13.097Z,14.40
2023-05-05T23:25:39.874Z,14.40
2023-05-05T23:28:06.664Z,14.30
2023-05-05T23:30:33.690Z,14.30
2023-05-05T23:33:01.260Z,14.30
2023-05-05T23:35:28.178Z,14.30
2023-05-05T23:37:55.163Z,14.30
2023-05-05T23:40:22.343Z,14.20
2023-05-05T23:42:49.210Z,14.20
2023-05-05T23:45:18.086Z,14.10
2023-05-05T23:47:46.098Z,14.00
2023-05-05T23:50:12.934Z,13.90
2023-05-05T23:52:39.729Z,13.80
2023-05-05T23:55:07.331Z,13.70
2023-05-05T23:57:35.335Z,13.60
